sensor_id;sensor_type;location;lat;lon;timestamp;temperature;humidity
61253;DHT22;47127;47.516;8.596;2023-12-28T00:00:17;4.60;99.90
61253;DHT22;47127;47.516;8.596;2023-12-28T00:02:43;4.80;99.90
61253;DHT22;47127;47.516;8.596;2023-12-28T00:05:08;5.00;99.90
61253;DHT22;47127;47.516;8.596;2023-12-28T00:07:34;5.00;99.90
61253;DHT22;47127;47.516;8.596;2023-12-28T00:10:01;5.20;99.90
61253;DHT22;47127;47.516;8.596;2023-12-28T00:12:27;5.00;99.90
61253;DHT22;47127;47.516;8.596;2023-12-28T00:14:53;4.80;99.90
61253;DHT22;47127;47.516;8.596;2023-12-28T00:17:18;4.70;99.90
61253;DHT22;47127;47.516;8.596;2023-12-28T00:19:44;4.90;99.90
61253;DHT22;47127;47.516;8.596;2023-12-28T00:22:10;5.00;99.90
61253;DHT22;47127;47.516;8.596;2023-12-28T00:24:35;5.10;99.90
61253;DHT22;47127;47.516;8.596;2023-12-28T00:27:01;4.90;99.90
61253;DHT22;47127;47.516;8.596;2023-12-28T00:29:26;4.60;99.90
61253;DHT22;47127;47.516;8.596;2023-12-28T00:31:54;4.50;99.90
61253;DHT22;47127;47.516;8.596;2023-12-28T00:34:19;4.40;99.90
61253;DHT22;47127;47.516;8.596;2023-12-28T00:36:45;4.40;99.90
61253;DHT22;47127;47.516;8.596;2023-12-28T00:39:10;4.50;99.90
61253;DHT22;47127;47.516;8.596;2023-12-28T00:41:36;4.60;99.90
61253;DHT22;47127;47.516;8.596;2023-12-28T00:44:02;4.60;99.90
61253;DHT22;47127;47.516;8.596;2023-12-28T00:46:27;4.60;99.90
61253;DHT22;47127;47.516;8.596;2023-12-28T00:48:54;4.60;99.90
61253;DHT22;47127;47.516;8.596;2023-12-28T00:51:20;4.70;99.90
61253;DHT22;47127;47.516;8.596;2023-12-28T00:53:46;4.80;99.90
61253;DHT22;47127;47.516;8.596;2023-12-28T00:56:12;4.80;99.90
61253;DHT22;47127;47.516;8.596;2023-12-28T00:58:40;4.50;99.90
61253;DHT22;47127;47.516;8.596;2023-12-28T01:01:08;4.30;99.90
61253;DHT22;47127;47.516;8.596;2023-12-28T01:03:34;4.30;99.90
61253;DHT22;47127;47.516;8.596;2023-12-28T01:05:59;4.30;99.90
61253;DHT22;47127;47.516;8.596;2023-12-28T01:08:25;4.20;99.90
61253;DHT22;47127;47.516;8.596;2023-12-28T01:10:50;4.00;99.90
61253;DHT22;47127;47.516;8.596;2023-12-28T01:13:16;4.00;99.90
61253;DHT22;47127;47.516;8.596;2023-12-28T01:15:41;3.80;99.90
61253;DHT22;47127;47.516;8.596;2023-12-28T01:18:07;3.60;99.90
61253;DHT22;47127;47.516;8.596;2023-12-28T01:20:33;3.50;99.90
61253;DHT22;47127;47.516;8.596;2023-12-28T01:22:59;3.50;99.90
61253;DHT22;47127;47.516;8.596;2023-12-28T01:25:24;3.50;99.90
61253;DHT22;47127;47.516;8.596;2023-12-28T01:27:50;3.30;99.90
61253;DHT22;47127;47.516;8.596;2023-12-28T01:30:15;3.10;99.90
61253;DHT22;47127;47.516;8.596;2023-12-28T01:32:41;2.90;99.90
61253;DHT22;47127;47.516;8.596;2023-12-28T01:35:06;2.80;99.90
61253;DHT22;47127;47.516;8.596;2023-12-28T01:37:32;2.80;99.90
61253;DHT22;47127;47.516;8.596;2023-12-28T01:39:59;2.80;99.90
61253;DHT22;47127;47.516;8.596;2023-12-28T01:42:25;2.80;99.90
61253;DHT22;47127;47.516;8.596;2023-12-28T01:44:51;2.70;99.90
61253;DHT22;47127;47.516;8.596;2023-12-28T01:47:17;2.90;99.90
61253;DHT22;47127;47.516;8.596;2023-12-28T01:49:43;3.10;99.90
61253;DHT22;47127;47.516;8.596;2023-12-28T01:52:10;3.50;99.90
61253;DHT22;47127;47.516;8.596;2023-12-28T01:54:36;3.60;99.90
61253;DHT22;47127;47.516;8.596;2023-12-28T01:57:03;3.50;99.90
61253;DHT22;47127;47.516;8.596;2023-12-28T01:59:31;3.40;99.90
61253;DHT22;47127;47.516;8.596;2023-12-28T02:01:57;3.30;99.90
61253;DHT22;47127;47.516;8.596;2023-12-28T02:04:23;3.30;99.90
61253;DHT22;47127;47.516;8.596;2023-12-28T02:06:57;3.30;99.90
61253;DHT22;47127;47.516;8.596;2023-12-28T02:09:23;3.30;99.90
61253;DHT22;47127;47.516;8.596;2023-12-28T02:11:48;3.20;99.90
61253;DHT22;47127;47.516;8.596;2023-12-28T02:14:14;3.10;99.90
61253;DHT22;47127;47.516;8.596;2023-12-28T02:16:47;3.10;99.90
61253;DHT22;47127;47.516;8.596;2023-12-28T02:19:32;3.30;99.90
61253;DHT22;47127;47.516;8.596;2023-12-28T02:21:59;3.50;99.90
61253;DHT22;47127;47.516;8.596;2023-12-28T02:24:24;3.80;99.90
61253;DHT22;47127;47.516;8.596;2023-12-28T02:26:50;3.90;99.90
61253;DHT22;47127;47.516;8.596;2023-12-28T02:29:16;4.10;99.90
61253;DHT22;47127;47.516;8.596;2023-12-28T02:31:57;4.00;99.90
61253;DHT22;47127;47.516;8.596;2023-12-28T02:34:29;3.70;99.90
61253;DHT22;47127;47.516;8.596;2023-12-28T02:36:56;3.60;99.90
61253;DHT22;47127;47.516;8.596;2023-12-28T02:39:23;3.60;99.90
61253;DHT22;47127;47.516;8.596;2023-12-28T02:41:50;3.70;99.90
61253;DHT22;47127;47.516;8.596;2023-12-28T02:44:16;3.90;99.90
61253;DHT22;47127;47.516;8.596;2023-12-28T02:46:41;4.10;99.90
61253;DHT22;47127;47.516;8.596;2023-12-28T02:49:07;4.20;99.90
61253;DHT22;47127;47.516;8.596;2023-12-28T02:51:33;4.10;99.90
61253;DHT22;47127;47.516;8.596;2023-12-28T02:53:58;3.90;99.90
61253;DHT22;47127;47.516;8.596;2023-12-28T02:56:24;3.80;99.90
61253;DHT22;47127;47.516;8.596;2023-12-28T02:58:49;3.80;99.90
61253;DHT22;47127;47.516;8.596;2023-12-28T03:01:15;3.90;99.90
61253;DHT22;47127;47.516;8.596;2023-12-28T03:03:40;3.70;99.90
61253;DHT22;47127;47.516;8.596;2023-12-28T03:06:06;3.80;99.90
61253;DHT22;47127;47.516;8.596;2023-12-28T03:08:32;3.80;99.90
61253;DHT22;47127;47.516;8.596;2023-12-28T03:10:57;3.70;99.90
61253;DHT22;47127;47.516;8.596;2023-12-28T03:13:23;3.50;99.90
61253;DHT22;47127;47.516;8.596;2023-12-28T03:15:48;3.50;99.90
61253;DHT22;47127;47.516;8.596;2023-12-28T03:18:14;3.50;99.90
61253;DHT22;47127;47.516;8.596;2023-12-28T03:20:40;3.60;99.90
61253;DHT22;47127;47.516;8.596;2023-12-28T03:23:05;3.90;99.90
61253;DHT22;47127;47.516;8.596;2023-12-28T03:25:31;4.20;99.90
61253;DHT22;47127;47.516;8.596;2023-12-28T03:27:56;4.20;99.90
61253;DHT22;47127;47.516;8.596;2023-12-28T03:30:22;4.00;99.90
61253;DHT22;47127;47.516;8.596;2023-12-28T03:32:47;4.00;99.90
61253;DHT22;47127;47.516;8.596;2023-12-28T03:35:13;4.10;99.90
61253;DHT22;47127;47.516;8.596;2023-12-28T03:37:38;4.30;99.90
61253;DHT22;47127;47.516;8.596;2023-12-28T03:40:04;4.40;99.90
61253;DHT22;47127;47.516;8.596;2023-12-28T03:42:30;4.50;99.90
61253;DHT22;47127;47.516;8.596;2023-12-28T03:44:56;4.60;99.90
61253;DHT22;47127;47.516;8.596;2023-12-28T03:47:21;4.60;99.90
61253;DHT22;47127;47.516;8.596;2023-12-28T03:49:48;4.30;99.90
61253;DHT22;47127;47.516;8.596;2023-12-28T03:52:13;4.00;99.90
61253;DHT22;47127;47.516;8.596;2023-12-28T03:54:39;3.70;99.90
61253;DHT22;47127;47.516;8.596;2023-12-28T03:57:05;3.60;99.90
61253;DHT22;47127;47.516;8.596;2023-12-28T03:59:30;3.30;99.90
61253;DHT22;47127;47.516;8.596;2023-12-28T04:01:57;3.40;99.90
61253;DHT22;47127;47.516;8.596;2023-12-28T04:04:22;3.30;99.90
61253;DHT22;47127;47.516;8.596;2023-12-28T04:06:49;3.20;99.90
61253;DHT22;47127;47.516;8.596;2023-12-28T04:09:14;3.10;99.90
61253;DHT22;47127;47.516;8.596;2023-12-28T04:11:40;2.90;99.90
61253;DHT22;47127;47.516;8.596;2023-12-28T04:14:06;3.00;99.90
61253;DHT22;47127;47.516;8.596;2023-12-28T04:16:31;3.10;99.90
61253;DHT22;47127;47.516;8.596;2023-12-28T04:18:58;3.30;99.90
61253;DHT22;47127;47.516;8.596;2023-12-28T04:21:23;3.50;99.90
61253;DHT22;47127;47.516;8.596;2023-12-28T04:23:49;3.60;99.90
61253;DHT22;47127;47.516;8.596;2023-12-28T04:26:18;3.40;99.90
61253;DHT22;47127;47.516;8.596;2023-12-28T04:28:44;3.20;99.90
61253;DHT22;47127;47.516;8.596;2023-12-28T04:31:10;3.00;99.90
61253;DHT22;47127;47.516;8.596;2023-12-28T04:33:35;3.00;99.90
61253;DHT22;47127;47.516;8.596;2023-12-28T04:36:02;3.10;99.90
61253;DHT22;47127;47.516;8.596;2023-12-28T04:38:31;3.00;99.90
61253;DHT22;47127;47.516;8.596;2023-12-28T04:40:57;2.90;99.90
61253;DHT22;47127;47.516;8.596;2023-12-28T04:43:24;2.80;99.90
61253;DHT22;47127;47.516;8.596;2023-12-28T04:45:50;2.80;99.90
61253;DHT22;47127;47.516;8.596;2023-12-28T04:48:16;2.80;99.90
61253;DHT22;47127;47.516;8.596;2023-12-28T04:50:46;2.90;99.90
61253;DHT22;47127;47.516;8.596;2023-12-28T04:53:12;3.00;99.90
61253;DHT22;47127;47.516;8.596;2023-12-28T04:55:38;3.10;99.90
61253;DHT22;47127;47.516;8.596;2023-12-28T04:58:03;3.30;99.90
61253;DHT22;47127;47.516;8.596;2023-12-28T05:00:29;3.40;99.90
61253;DHT22;47127;47.516;8.596;2023-12-28T05:02:54;3.60;99.90
61253;DHT22;47127;47.516;8.596;2023-12-28T05:05:20;3.80;99.90
61253;DHT22;47127;47.516;8.596;2023-12-28T05:07:45;3.90;99.90
61253;DHT22;47127;47.516;8.596;2023-12-28T05:10:11;3.70;99.90
61253;DHT22;47127;47.516;8.596;2023-12-28T05:12:36;3.70;99.90
61253;DHT22;47127;47.516;8.596;2023-12-28T05:15:02;3.70;99.90
61253;DHT22;47127;47.516;8.596;2023-12-28T05:17:28;3.70;99.90
61253;DHT22;47127;47.516;8.596;2023-12-28T05:19:53;3.50;99.90
61253;DHT22;47127;47.516;8.596;2023-12-28T05:22:21;3.50;99.90
61253;DHT22;47127;47.516;8.596;2023-12-28T05:24:46;3.50;99.90
61253;DHT22;47127;47.516;8.596;2023-12-28T05:27:15;3.40;99.90
61253;DHT22;47127;47.516;8.596;2023-12-28T05:29:41;3.20;99.90
61253;DHT22;47127;47.516;8.596;2023-12-28T05:32:06;3.00;99.90
61253;DHT22;47127;47.516;8.596;2023-12-28T05:34:32;2.80;99.90
61253;DHT22;47127;47.516;8.596;2023-12-28T05:36:57;2.70;99.90
61253;DHT22;47127;47.516;8.596;2023-12-28T05:39:23;2.80;99.90
61253;DHT22;47127;47.516;8.596;2023-12-28T05:41:48;2.80;99.90
61253;DHT22;47127;47.516;8.596;2023-12-28T05:44:16;3.00;99.90
61253;DHT22;47127;47.516;8.596;2023-12-28T05:46:41;3.10;99.90
61253;DHT22;47127;47.516;8.596;2023-12-28T05:49:07;3.00;99.90
61253;DHT22;47127;47.516;8.596;2023-12-28T05:51:42;2.70;99.90
61253;DHT22;47127;47.516;8.596;2023-12-28T05:54:08;2.70;99.90
61253;DHT22;47127;47.516;8.596;2023-12-28T05:56:34;2.70;99.90
61253;DHT22;47127;47.516;8.596;2023-12-28T05:59:06;2.70;99.90
61253;DHT22;47127;47.516;8.596;2023-12-28T06:01:40;3.00;99.90
61253;DHT22;47127;47.516;8.596;2023-12-28T06:04:06;2.90;99.90
61253;DHT22;47127;47.516;8.596;2023-12-28T06:06:32;3.10;99.90
61253;DHT22;47127;47.516;8.596;2023-12-28T06:08:57;3.10;99.90
61253;DHT22;47127;47.516;8.596;2023-12-28T06:11:23;3.00;99.90
61253;DHT22;47127;47.516;8.596;2023-12-28T06:13:49;3.10;99.90
61253;DHT22;47127;47.516;8.596;2023-12-28T06:16:14;3.20;99.90
61253;DHT22;47127;47.516;8.596;2023-12-28T06:18:40;3.30;99.90
61253;DHT22;47127;47.516;8.596;2023-12-28T06:21:08;3.20;99.90
61253;DHT22;47127;47.516;8.596;2023-12-28T06:23:33;3.20;99.90
61253;DHT22;47127;47.516;8.596;2023-12-28T06:26:04;3.20;99.90
61253;DHT22;47127;47.516;8.596;2023-12-28T06:28:30;3.20;99.90
61253;DHT22;47127;47.516;8.596;2023-12-28T06:30:57;3.10;99.90
61253;DHT22;47127;47.516;8.596;2023-12-28T06:33:26;3.00;99.90
61253;DHT22;47127;47.516;8.596;2023-12-28T06:35:52;2.90;99.90
61253;DHT22;47127;47.516;8.596;2023-12-28T06:38:18;3.00;99.90
61253;DHT22;47127;47.516;8.596;2023-12-28T06:40:44;3.10;99.90
61253;DHT22;47127;47.516;8.596;2023-12-28T06:43:09;3.20;99.90
61253;DHT22;47127;47.516;8.596;2023-12-28T06:45:35;3.30;99.90
61253;DHT22;47127;47.516;8.596;2023-12-28T06:48:00;3.40;99.90
61253;DHT22;47127;47.516;8.596;2023-12-28T06:50:26;3.40;99.90
61253;DHT22;47127;47.516;8.596;2023-12-28T06:52:51;3.40;99.90
61253;DHT22;47127;47.516;8.596;2023-12-28T06:55:17;3.50;99.90
61253;DHT22;47127;47.516;8.596;2023-12-28T06:57:42;3.30;99.90
61253;DHT22;47127;47.516;8.596;2023-12-28T07:00:08;3.30;99.90
61253;DHT22;47127;47.516;8.596;2023-12-28T07:02:34;3.20;99.90
61253;DHT22;47127;47.516;8.596;2023-12-28T07:04:59;3.00;99.90
61253;DHT22;47127;47.516;8.596;2023-12-28T07:07:25;2.90;99.90
61253;DHT22;47127;47.516;8.596;2023-12-28T07:09:50;2.80;99.90
61253;DHT22;47127;47.516;8.596;2023-12-28T07:12:16;2.70;99.90
61253;DHT22;47127;47.516;8.596;2023-12-28T07:14:41;2.80;99.90
61253;DHT22;47127;47.516;8.596;2023-12-28T07:17:07;2.80;99.90
61253;DHT22;47127;47.516;8.596;2023-12-28T07:19:32;2.90;99.90
61253;DHT22;47127;47.516;8.596;2023-12-28T07:21:58;2.90;99.90
61253;DHT22;47127;47.516;8.596;2023-12-28T07:24:24;2.90;99.90
61253;DHT22;47127;47.516;8.596;2023-12-28T07:26:50;3.00;99.90
61253;DHT22;47127;47.516;8.596;2023-12-28T07:29:15;3.00;99.90
61253;DHT22;47127;47.516;8.596;2023-12-28T07:31:41;3.10;99.90
61253;DHT22;47127;47.516;8.596;2023-12-28T07:34:06;3.10;99.90
61253;DHT22;47127;47.516;8.596;2023-12-28T07:36:32;3.10;99.90
61253;DHT22;47127;47.516;8.596;2023-12-28T07:38:58;3.10;99.90
61253;DHT22;47127;47.516;8.596;2023-12-28T07:41:23;3.10;99.90
61253;DHT22;47127;47.516;8.596;2023-12-28T07:43:51;3.10;99.90
61253;DHT22;47127;47.516;8.596;2023-12-28T07:46:17;3.00;99.90
61253;DHT22;47127;47.516;8.596;2023-12-28T07:48:42;2.90;99.90
61253;DHT22;47127;47.516;8.596;2023-12-28T07:51:08;3.00;99.90
61253;DHT22;47127;47.516;8.596;2023-12-28T07:53:34;3.30;99.90
61253;DHT22;47127;47.516;8.596;2023-12-28T07:56:00;3.30;99.90
61253;DHT22;47127;47.516;8.596;2023-12-28T07:58:25;3.20;99.90
61253;DHT22;47127;47.516;8.596;2023-12-28T08:00:51;3.20;99.90
61253;DHT22;47127;47.516;8.596;2023-12-28T08:03:17;3.20;99.90
61253;DHT22;47127;47.516;8.596;2023-12-28T08:05:43;3.20;99.90
61253;DHT22;47127;47.516;8.596;2023-12-28T08:08:08;3.30;99.90
61253;DHT22;47127;47.516;8.596;2023-12-28T08:10:34;3.30;99.90
61253;DHT22;47127;47.516;8.596;2023-12-28T08:12:59;3.40;99.90
61253;DHT22;47127;47.516;8.596;2023-12-28T08:15:25;3.60;99.90
61253;DHT22;47127;47.516;8.596;2023-12-28T08:17:50;3.70;99.90
61253;DHT22;47127;47.516;8.596;2023-12-28T08:20:16;3.80;99.90
61253;DHT22;47127;47.516;8.596;2023-12-28T08:22:42;4.00;99.90
61253;DHT22;47127;47.516;8.596;2023-12-28T08:25:07;4.30;99.90
61253;DHT22;47127;47.516;8.596;2023-12-28T08:27:33;4.50;99.90
61253;DHT22;47127;47.516;8.596;2023-12-28T08:29:58;4.60;99.90
61253;DHT22;47127;47.516;8.596;2023-12-28T08:32:24;4.70;99.90
61253;DHT22;47127;47.516;8.596;2023-12-28T08:34:50;4.70;99.90
61253;DHT22;47127;47.516;8.596;2023-12-28T08:37:16;4.90;99.90
61253;DHT22;47127;47.516;8.596;2023-12-28T08:39:41;5.00;99.90
61253;DHT22;47127;47.516;8.596;2023-12-28T08:42:07;5.10;99.90
61253;DHT22;47127;47.516;8.596;2023-12-28T08:44:32;5.20;99.90
61253;DHT22;47127;47.516;8.596;2023-12-28T08:46:59;5.30;99.90
61253;DHT22;47127;47.516;8.596;2023-12-28T08:49:24;5.40;99.90
61253;DHT22;47127;47.516;8.596;2023-12-28T08:51:51;5.50;99.90
61253;DHT22;47127;47.516;8.596;2023-12-28T08:54:16;5.70;99.90
61253;DHT22;47127;47.516;8.596;2023-12-28T08:56:42;5.70;99.90
61253;DHT22;47127;47.516;8.596;2023-12-28T08:59:08;5.80;99.90
61253;DHT22;47127;47.516;8.596;2023-12-28T09:01:34;5.80;99.90
61253;DHT22;47127;47.516;8.596;2023-12-28T09:04:00;5.80;99.90
61253;DHT22;47127;47.516;8.596;2023-12-28T09:06:26;5.90;99.90
61253;DHT22;47127;47.516;8.596;2023-12-28T09:08:52;6.00;99.90
61253;DHT22;47127;47.516;8.596;2023-12-28T09:11:19;6.00;99.90
61253;DHT22;47127;47.516;8.596;2023-12-28T09:13:45;5.90;99.90
61253;DHT22;47127;47.516;8.596;2023-12-28T09:16:12;5.90;99.90
61253;DHT22;47127;47.516;8.596;2023-12-28T09:18:38;5.80;99.90
61253;DHT22;47127;47.516;8.596;2023-12-28T09:21:05;5.80;99.90
61253;DHT22;47127;47.516;8.596;2023-12-28T09:23:31;6.00;99.90
61253;DHT22;47127;47.516;8.596;2023-12-28T09:25:58;5.90;99.90
61253;DHT22;47127;47.516;8.596;2023-12-28T09:28:24;5.80;99.90
61253;DHT22;47127;47.516;8.596;2023-12-28T09:30:50;6.00;99.90
61253;DHT22;47127;47.516;8.596;2023-12-28T09:33:16;6.10;99.90
61253;DHT22;47127;47.516;8.596;2023-12-28T09:35:41;6.10;99.90
61253;DHT22;47127;47.516;8.596;2023-12-28T09:38:07;6.10;99.90
61253;DHT22;47127;47.516;8.596;2023-12-28T09:40:35;6.10;99.90
61253;DHT22;47127;47.516;8.596;2023-12-28T09:45:47;6.00;99.90
61253;DHT22;47127;47.516;8.596;2023-12-28T09:48:16;6.20;99.90
61253;DHT22;47127;47.516;8.596;2023-12-28T09:50:43;6.20;99.90
61253;DHT22;47127;47.516;8.596;2023-12-28T09:53:08;6.10;99.90
61253;DHT22;47127;47.516;8.596;2023-12-28T09:55:34;6.10;99.90
61253;DHT22;47127;47.516;8.596;2023-12-28T09:58:00;6.10;99.90
61253;DHT22;47127;47.516;8.596;2023-12-28T10:00:27;6.10;99.90
61253;DHT22;47127;47.516;8.596;2023-12-28T10:02:52;6.20;99.90
61253;DHT22;47127;47.516;8.596;2023-12-28T10:05:18;6.30;99.90
61253;DHT22;47127;47.516;8.596;2023-12-28T10:07:45;6.40;99.90
61253;DHT22;47127;47.516;8.596;2023-12-28T10:10:12;6.50;99.90
61253;DHT22;47127;47.516;8.596;2023-12-28T10:12:38;6.60;99.90
61253;DHT22;47127;47.516;8.596;2023-12-28T10:15:06;6.80;99.90
61253;DHT22;47127;47.516;8.596;2023-12-28T10:17:33;7.00;99.90
61253;DHT22;47127;47.516;8.596;2023-12-28T10:19:59;7.00;99.90
61253;DHT22;47127;47.516;8.596;2023-12-28T10:22:30;7.00;99.90
61253;DHT22;47127;47.516;8.596;2023-12-28T10:24:56;7.10;99.90
61253;DHT22;47127;47.516;8.596;2023-12-28T10:27:22;7.10;99.90
61253;DHT22;47127;47.516;8.596;2023-12-28T10:29:47;7.10;99.90
61253;DHT22;47127;47.516;8.596;2023-12-28T10:32:13;7.10;99.90
61253;DHT22;47127;47.516;8.596;2023-12-28T10:34:43;7.20;99.90
61253;DHT22;47127;47.516;8.596;2023-12-28T10:37:09;7.20;99.90
61253;DHT22;47127;47.516;8.596;2023-12-28T10:39:39;7.20;99.90
61253;DHT22;47127;47.516;8.596;2023-12-28T10:42:09;7.30;99.90
61253;DHT22;47127;47.516;8.596;2023-12-28T10:44:39;7.30;99.90
61253;DHT22;47127;47.516;8.596;2023-12-28T10:47:14;7.40;99.90
61253;DHT22;47127;47.516;8.596;2023-12-28T10:49:42;7.40;99.90
61253;DHT22;47127;47.516;8.596;2023-12-28T10:52:12;7.50;99.90
61253;DHT22;47127;47.516;8.596;2023-12-28T10:54:47;7.50;99.90
61253;DHT22;47127;47.516;8.596;2023-12-28T10:57:25;7.60;99.90
61253;DHT22;47127;47.516;8.596;2023-12-28T11:00:04;7.70;99.90
61253;DHT22;47127;47.516;8.596;2023-12-28T11:02:56;7.70;99.90
61253;DHT22;47127;47.516;8.596;2023-12-28T11:05:22;7.70;99.90
61253;DHT22;47127;47.516;8.596;2023-12-28T11:07:49;7.60;99.90
61253;DHT22;47127;47.516;8.596;2023-12-28T11:10:20;7.60;99.90
61253;DHT22;47127;47.516;8.596;2023-12-28T11:12:50;7.70;99.90
61253;DHT22;47127;47.516;8.596;2023-12-28T11:15:16;7.70;99.90
61253;DHT22;47127;47.516;8.596;2023-12-28T11:17:43;7.70;99.90
61253;DHT22;47127;47.516;8.596;2023-12-28T11:20:10;7.80;99.90
61253;DHT22;47127;47.516;8.596;2023-12-28T11:22:37;7.90;99.90
61253;DHT22;47127;47.516;8.596;2023-12-28T11:25:03;7.90;99.90
61253;DHT22;47127;47.516;8.596;2023-12-28T11:27:34;8.00;99.90
61253;DHT22;47127;47.516;8.596;2023-12-28T11:30:00;7.90;99.90
61253;DHT22;47127;47.516;8.596;2023-12-28T11:32:26;8.00;99.90
61253;DHT22;47127;47.516;8.596;2023-12-28T11:34:58;8.10;99.90
61253;DHT22;47127;47.516;8.596;2023-12-28T11:37:26;8.20;99.90
61253;DHT22;47127;47.516;8.596;2023-12-28T11:39:52;8.10;99.90
61253;DHT22;47127;47.516;8.596;2023-12-28T11:42:22;8.20;99.90
61253;DHT22;47127;47.516;8.596;2023-12-28T11:44:56;8.30;99.90
61253;DHT22;47127;47.516;8.596;2023-12-28T11:47:25;8.30;99.90
61253;DHT22;47127;47.516;8.596;2023-12-28T11:49:52;8.20;99.90
61253;DHT22;47127;47.516;8.596;2023-12-28T11:52:29;8.30;99.90
61253;DHT22;47127;47.516;8.596;2023-12-28T11:54:56;8.30;99.90
61253;DHT22;47127;47.516;8.596;2023-12-28T11:57:22;8.40;99.90
61253;DHT22;47127;47.516;8.596;2023-12-28T11:59:53;8.40;99.90
61253;DHT22;47127;47.516;8.596;2023-12-28T12:02:19;8.50;99.90
61253;DHT22;47127;47.516;8.596;2023-12-28T12:04:45;8.40;99.90
61253;DHT22;47127;47.516;8.596;2023-12-28T12:07:11;8.40;99.90
61253;DHT22;47127;47.516;8.596;2023-12-28T12:09:37;8.60;99.90
61253;DHT22;47127;47.516;8.596;2023-12-28T12:12:04;8.60;99.90
61253;DHT22;47127;47.516;8.596;2023-12-28T12:14:30;8.60;99.90
61253;DHT22;47127;47.516;8.596;2023-12-28T12:16:56;8.50;99.90
61253;DHT22;47127;47.516;8.596;2023-12-28T12:19:23;8.50;99.90
61253;DHT22;47127;47.516;8.596;2023-12-28T12:21:49;8.50;99.90
61253;DHT22;47127;47.516;8.596;2023-12-28T12:24:17;8.60;99.90
61253;DHT22;47127;47.516;8.596;2023-12-28T12:26:43;8.60;99.90
61253;DHT22;47127;47.516;8.596;2023-12-28T12:29:08;8.70;99.90
61253;DHT22;47127;47.516;8.596;2023-12-28T12:31:34;8.80;99.90
61253;DHT22;47127;47.516;8.596;2023-12-28T12:34:00;8.80;99.90
61253;DHT22;47127;47.516;8.596;2023-12-28T12:36:26;9.00;99.90
61253;DHT22;47127;47.516;8.596;2023-12-28T12:38:51;8.90;99.90
61253;DHT22;47127;47.516;8.596;2023-12-28T12:41:17;8.90;99.90
61253;DHT22;47127;47.516;8.596;2023-12-28T12:43:43;8.90;99.90
61253;DHT22;47127;47.516;8.596;2023-12-28T12:46:08;8.80;99.90
61253;DHT22;47127;47.516;8.596;2023-12-28T12:48:34;8.80;99.90
61253;DHT22;47127;47.516;8.596;2023-12-28T12:51:02;8.70;99.90
61253;DHT22;47127;47.516;8.596;2023-12-28T12:53:35;8.70;99.90
61253;DHT22;47127;47.516;8.596;2023-12-28T12:56:03;8.60;99.90
61253;DHT22;47127;47.516;8.596;2023-12-28T12:58:30;8.60;99.90
61253;DHT22;47127;47.516;8.596;2023-12-28T13:00:56;8.70;99.90
61253;DHT22;47127;47.516;8.596;2023-12-28T13:03:27;8.60;99.90
61253;DHT22;47127;47.516;8.596;2023-12-28T13:05:53;8.60;99.90
61253;DHT22;47127;47.516;8.596;2023-12-28T13:08:18;8.60;99.90
61253;DHT22;47127;47.516;8.596;2023-12-28T13:10:44;8.60;99.90
61253;DHT22;47127;47.516;8.596;2023-12-28T13:13:10;8.60;99.90
61253;DHT22;47127;47.516;8.596;2023-12-28T13:15:35;8.70;99.90
61253;DHT22;47127;47.516;8.596;2023-12-28T13:18:01;8.70;99.90
61253;DHT22;47127;47.516;8.596;2023-12-28T13:20:27;8.60;99.90
61253;DHT22;47127;47.516;8.596;2023-12-28T13:22:52;8.60;99.90
61253;DHT22;47127;47.516;8.596;2023-12-28T13:25:18;8.50;99.90
61253;DHT22;47127;47.516;8.596;2023-12-28T13:27:43;8.50;99.90
61253;DHT22;47127;47.516;8.596;2023-12-28T13:30:09;8.50;99.90
61253;DHT22;47127;47.516;8.596;2023-12-28T13:32:37;8.50;99.90
61253;DHT22;47127;47.516;8.596;2023-12-28T13:35:03;8.40;99.90
61253;DHT22;47127;47.516;8.596;2023-12-28T13:37:28;8.40;99.90
61253;DHT22;47127;47.516;8.596;2023-12-28T13:39:54;8.40;99.90
61253;DHT22;47127;47.516;8.596;2023-12-28T13:42:19;8.30;99.90
61253;DHT22;47127;47.516;8.596;2023-12-28T13:44:45;8.30;99.90
61253;DHT22;47127;47.516;8.596;2023-12-28T13:47:10;8.30;99.90
61253;DHT22;47127;47.516;8.596;2023-12-28T13:49:36;8.30;99.90
61253;DHT22;47127;47.516;8.596;2023-12-28T13:52:02;8.30;99.90
61253;DHT22;47127;47.516;8.596;2023-12-28T13:54:28;8.40;99.90
61253;DHT22;47127;47.516;8.596;2023-12-28T13:56:53;8.30;99.90
61253;DHT22;47127;47.516;8.596;2023-12-28T13:59:24;8.30;99.90
61253;DHT22;47127;47.516;8.596;2023-12-28T14:01:49;8.40;99.90
61253;DHT22;47127;47.516;8.596;2023-12-28T14:04:16;8.30;99.90
61253;DHT22;47127;47.516;8.596;2023-12-28T14:06:41;8.40;99.90
61253;DHT22;47127;47.516;8.596;2023-12-28T14:09:07;8.50;99.90
61253;DHT22;47127;47.516;8.596;2023-12-28T14:11:33;8.50;99.90
61253;DHT22;47127;47.516;8.596;2023-12-28T14:13:59;8.60;99.90
61253;DHT22;47127;47.516;8.596;2023-12-28T14:16:24;8.80;99.90
61253;DHT22;47127;47.516;8.596;2023-12-28T14:18:50;8.70;99.90
61253;DHT22;47127;47.516;8.596;2023-12-28T14:21:18;8.70;99.90
61253;DHT22;47127;47.516;8.596;2023-12-28T14:23:43;8.80;99.90
61253;DHT22;47127;47.516;8.596;2023-12-28T14:26:13;8.90;99.90
61253;DHT22;47127;47.516;8.596;2023-12-28T14:28:41;8.80;99.90
61253;DHT22;47127;47.516;8.596;2023-12-28T14:31:08;8.80;99.90
61253;DHT22;47127;47.516;8.596;2023-12-28T14:33:34;8.80;99.90
61253;DHT22;47127;47.516;8.596;2023-12-28T14:36:01;8.80;99.90
61253;DHT22;47127;47.516;8.596;2023-12-28T14:38:28;8.80;99.90
61253;DHT22;47127;47.516;8.596;2023-12-28T14:40:53;8.90;99.90
61253;DHT22;47127;47.516;8.596;2023-12-28T14:43:19;8.80;99.90
61253;DHT22;47127;47.516;8.596;2023-12-28T14:45:45;8.80;99.90
61253;DHT22;47127;47.516;8.596;2023-12-28T14:48:12;8.80;99.90
61253;DHT22;47127;47.516;8.596;2023-12-28T14:50:38;8.80;99.90
61253;DHT22;47127;47.516;8.596;2023-12-28T14:53:05;8.70;99.90
61253;DHT22;47127;47.516;8.596;2023-12-28T14:55:30;8.70;99.90
61253;DHT22;47127;47.516;8.596;2023-12-28T14:57:56;8.70;99.90
61253;DHT22;47127;47.516;8.596;2023-12-28T15:00:22;8.60;99.90
61253;DHT22;47127;47.516;8.596;2023-12-28T15:02:49;8.60;99.90
61253;DHT22;47127;47.516;8.596;2023-12-28T15:05:14;8.60;99.90
61253;DHT22;47127;47.516;8.596;2023-12-28T15:07:40;8.70;99.90
61253;DHT22;47127;47.516;8.596;2023-12-28T15:10:07;8.70;99.90
61253;DHT22;47127;47.516;8.596;2023-12-28T15:12:34;8.60;99.90
61253;DHT22;47127;47.516;8.596;2023-12-28T15:15:00;8.60;99.90
61253;DHT22;47127;47.516;8.596;2023-12-28T15:17:26;8.60;99.90
61253;DHT22;47127;47.516;8.596;2023-12-28T15:19:52;8.60;99.90
61253;DHT22;47127;47.516;8.596;2023-12-28T15:22:18;8.50;99.90
61253;DHT22;47127;47.516;8.596;2023-12-28T15:24:44;8.70;99.90
61253;DHT22;47127;47.516;8.596;2023-12-28T15:27:09;8.70;99.90
61253;DHT22;47127;47.516;8.596;2023-12-28T15:29:36;8.70;99.90
61253;DHT22;47127;47.516;8.596;2023-12-28T15:32:01;8.70;99.90
61253;DHT22;47127;47.516;8.596;2023-12-28T15:34:27;8.70;99.90
61253;DHT22;47127;47.516;8.596;2023-12-28T15:36:52;8.60;99.90
61253;DHT22;47127;47.516;8.596;2023-12-28T15:39:18;8.60;99.90
61253;DHT22;47127;47.516;8.596;2023-12-28T15:41:43;8.60;99.90